Main page
METAR-TAF:

METAR-TAF

Airports :

Cairo International Airport

Cairo, Egypt

latitude: 30-08N, longitude: 031-24E, elevation: 64 m

Current weather observation

The report was made 15 minutes ago, at 07:30 UTC
Wind 4 kt from the West/Northwest
Temperature 30°C
Humidity 66%
Pressure 1006 hPa
Visibility: 6000 m
Scattered clouds at a height of 2500 ft

METAR: HECA 300730Z 30004KT 6000 SCT025 30/23 Q1006 NOSIG

Time: 09:45 (07:45 UTC)

Forecast

The report was made 2 hours and 45 minutes ago, at 05:00 UTC
Forecast valid from 30 at 06 UTC to 31 at 12 UTC
Wind 9 kt from the North
Visibility 10 km or more
no clouds below 1500 m and no cumulonimbus
Temporary
from 30 at 06 UTC to 30 at 09 UTC
Wind 3 kt from variable directions
Visibility: 4000 m
mist

TAF: HECA 300500Z 3006/3112 35009KT CAVOK TEMPO 3006/3009 VRB03KT 4000 BR NSC

Weather observations and forecasts of more than 4000 airports (METAR and TAF reports).

The available stations are represented by yellow and red dots on the map.

Hover mouse over dot to see the name of the station.

Then click to see weather observations and forecasts.

To change the map : click on the green buttons with a black cross to zoom in, on the green button with a dash to zoom out, or on the green arrows for adjacent maps.


METAR-TAF: